sensor_id;sensor_type;location;lat;lon;timestamp;pressure;altitude;pressure_sealevel;temperature;humidity
50672;BME280;46021;55.882;37.654;2023-05-11T00:00:38;100150.44;;;9.97;47.76
50672;BME280;46021;55.882;37.654;2023-05-11T00:03:05;100156.47;;;9.99;47.35
50672;BME280;46021;55.882;37.654;2023-05-11T00:05:38;100159.09;;;9.97;47.31
50672;BME280;46021;55.882;37.654;2023-05-11T00:08:05;100150.47;;;9.95;47.44
50672;BME280;46021;55.882;37.654;2023-05-11T00:10:33;100145.31;;;9.92;47.56
50672;BME280;46021;55.882;37.654;2023-05-11T00:13:01;100147.03;;;9.93;47.80
50672;BME280;46021;55.882;37.654;2023-05-11T00:15:28;100150.50;;;9.92;48.39
50672;BME280;46021;55.882;37.654;2023-05-11T00:17:56;100152.31;;;9.88;48.05
50672;BME280;46021;55.882;37.654;2023-05-11T00:20:23;100153.25;;;9.86;48.58
50672;BME280;46021;55.882;37.654;2023-05-11T00:22:52;100148.09;;;9.83;48.32
50672;BME280;46021;55.882;37.654;2023-05-11T00:25:19;100143.94;;;9.75;48.80
50672;BME280;46021;55.882;37.654;2023-05-11T00:27:46;100149.06;;;9.79;47.87
50672;BME280;46021;55.882;37.654;2023-05-11T00:30:15;100152.56;;;9.78;48.46
50672;BME280;46021;55.882;37.654;2023-05-11T00:32:43;100159.56;;;9.75;49.14
50672;BME280;46021;55.882;37.654;2023-05-11T00:35:13;100139.81;;;9.64;48.99
50672;BME280;46021;55.882;37.654;2023-05-11T00:37:40;100152.69;;;9.71;49.27
50672;BME280;46021;55.882;37.654;2023-05-11T00:40:07;100149.25;;;9.69;50.05
50672;BME280;46021;55.882;37.654;2023-05-11T00:42:35;100133.81;;;9.60;49.91
50672;BME280;46021;55.882;37.654;2023-05-11T00:45:03;100145.91;;;9.64;50.16
50672;BME280;46021;55.882;37.654;2023-05-11T00:47:35;100144.22;;;9.60;50.32
50672;BME280;46021;55.882;37.654;2023-05-11T00:50:03;100151.22;;;9.58;50.64
50672;BME280;46021;55.882;37.654;2023-05-11T00:52:30;100146.09;;;9.55;50.54
50672;BME280;46021;55.882;37.654;2023-05-11T00:54:58;100154.78;;;9.54;50.09
50672;BME280;46021;55.882;37.654;2023-05-11T00:57:25;100154.84;;;9.51;50.15
50672;BME280;46021;55.882;37.654;2023-05-11T00:59:52;100160.13;;;9.48;50.00
50672;BME280;46021;55.882;37.654;2023-05-11T01:02:20;100157.69;;;9.39;50.97
50672;BME280;46021;55.882;37.654;2023-05-11T01:04:48;100162.06;;;9.36;50.69
50672;BME280;46021;55.882;37.654;2023-05-11T01:07:20;100154.44;;;9.26;51.38
50672;BME280;46021;55.882;37.654;2023-05-11T01:09:57;100168.34;;;9.26;51.08
50672;BME280;46021;55.882;37.654;2023-05-11T01:12:32;100164.94;;;9.23;51.58
50672;BME280;46021;55.882;37.654;2023-05-11T01:15:09;100165.81;;;9.20;51.38
50672;BME280;46021;55.882;37.654;2023-05-11T01:17:43;100161.53;;;9.19;51.92
50672;BME280;46021;55.882;37.654;2023-05-11T01:20:16;100163.25;;;9.18;52.14
50672;BME280;46021;55.882;37.654;2023-05-11T01:23:08;100159.81;;;9.18;51.17
50672;BME280;46021;55.882;37.654;2023-05-11T01:26:06;100158.03;;;9.20;51.30
50672;BME280;46021;55.882;37.654;2023-05-11T01:28:51;100165.84;;;9.18;51.37
50672;BME280;46021;55.882;37.654;2023-05-11T01:31:28;100154.69;;;9.15;50.53
50672;BME280;46021;55.882;37.654;2023-05-11T01:33:58;100164.22;;;9.13;51.05
50672;BME280;46021;55.882;37.654;2023-05-11T01:36:30;100167.72;;;9.12;51.20
50672;BME280;46021;55.882;37.654;2023-05-11T01:39:02;100161.66;;;9.11;51.60
50672;BME280;46021;55.882;37.654;2023-05-11T01:41:32;100166.00;;;9.11;51.17
50672;BME280;46021;55.882;37.654;2023-05-11T01:44:04;100160.88;;;9.08;51.26
50672;BME280;46021;55.882;37.654;2023-05-11T01:46:33;100174.69;;;9.10;51.29
50672;BME280;46021;55.882;37.654;2023-05-11T01:49:02;100171.19;;;9.11;51.42
50672;BME280;46021;55.882;37.654;2023-05-11T01:51:34;100170.38;;;9.07;51.75
50672;BME280;46021;55.882;37.654;2023-05-11T01:54:05;100166.94;;;9.07;51.79
50672;BME280;46021;55.882;37.654;2023-05-11T01:56:34;100161.72;;;9.08;51.61
50672;BME280;46021;55.882;37.654;2023-05-11T01:59:02;100167.84;;;9.06;51.83
50672;BME280;46021;55.882;37.654;2023-05-11T02:01:30;100164.47;;;9.01;52.52
50672;BME280;46021;55.882;37.654;2023-05-11T02:04:01;100168.72;;;9.03;51.87
50672;BME280;46021;55.882;37.654;2023-05-11T02:06:30;100173.06;;;9.04;52.16
50672;BME280;46021;55.882;37.654;2023-05-11T02:08:59;100169.63;;;9.04;51.80
50672;BME280;46021;55.882;37.654;2023-05-11T02:11:29;100167.00;;;9.04;52.36
50672;BME280;46021;55.882;37.654;2023-05-11T02:13:57;100167.88;;;9.03;52.04
50672;BME280;46021;55.882;37.654;2023-05-11T02:16:25;100167.78;;;9.07;52.70
50672;BME280;46021;55.882;37.654;2023-05-11T02:18:54;100172.16;;;9.07;52.01
50672;BME280;46021;55.882;37.654;2023-05-11T02:21:44;100159.25;;;9.01;51.74
50672;BME280;46021;55.882;37.654;2023-05-11T02:24:12;100165.19;;;9.07;51.33
50672;BME280;46021;55.882;37.654;2023-05-11T02:26:40;100169.50;;;9.10;51.36
50672;BME280;46021;55.882;37.654;2023-05-11T02:29:08;100165.09;;;9.13;51.55
50672;BME280;46021;55.882;37.654;2023-05-11T02:31:39;100167.69;;;9.15;51.46
50672;BME280;46021;55.882;37.654;2023-05-11T02:34:21;100171.03;;;9.20;51.36
50672;BME280;46021;55.882;37.654;2023-05-11T02:36:53;100168.38;;;9.23;51.58
50672;BME280;46021;55.882;37.654;2023-05-11T02:39:34;100171.78;;;9.27;51.42
50672;BME280;46021;55.882;37.654;2023-05-11T02:42:10;100176.06;;;9.29;51.22
50672;BME280;46021;55.882;37.654;2023-05-11T02:44:41;100174.25;;;9.34;51.15
50672;BME280;46021;55.882;37.654;2023-05-11T02:49:46;100172.38;;;9.41;51.98
50672;BME280;46021;55.882;37.654;2023-05-11T02:52:21;100178.41;;;9.43;51.85
50672;BME280;46021;55.882;37.654;2023-05-11T02:54:50;100179.19;;;9.47;51.39
50672;BME280;46021;55.882;37.654;2023-05-11T02:57:18;100178.31;;;9.49;52.11
50672;BME280;46021;55.882;37.654;2023-05-11T02:59:48;100180.88;;;9.51;51.88
50672;BME280;46021;55.882;37.654;2023-05-11T03:02:20;100182.59;;;9.52;51.95
50672;BME280;46021;55.882;37.654;2023-05-11T03:04:47;100186.84;;;9.54;51.20
50672;BME280;46021;55.882;37.654;2023-05-11T03:07:14;100182.44;;;9.58;51.60
50672;BME280;46021;55.882;37.654;2023-05-11T03:09:43;100184.13;;;9.62;51.18
50672;BME280;46021;55.882;37.654;2023-05-11T03:12:10;100191.84;;;9.67;51.10
50672;BME280;46021;55.882;37.654;2023-05-11T03:14:38;100186.53;;;9.71;51.33
50672;BME280;46021;55.882;37.654;2023-05-11T03:17:07;100177.81;;;9.74;51.24
50672;BME280;46021;55.882;37.654;2023-05-11T03:19:37;100187.16;;;9.83;51.04
50672;BME280;46021;55.882;37.654;2023-05-11T03:22:08;100180.13;;;9.88;51.22
50672;BME280;46021;55.882;37.654;2023-05-11T03:24:36;100191.19;;;9.98;51.23
50672;BME280;46021;55.882;37.654;2023-05-11T03:27:06;100190.16;;;10.06;51.90
50672;BME280;46021;55.882;37.654;2023-05-11T03:29:35;100184.88;;;10.09;51.81
50672;BME280;46021;55.882;37.654;2023-05-11T03:32:07;100197.56;;;10.25;51.68
50672;BME280;46021;55.882;37.654;2023-05-11T03:34:36;100197.44;;;10.32;51.27
50672;BME280;46021;55.882;37.654;2023-05-11T03:37:05;100199.91;;;10.37;51.38
50672;BME280;46021;55.882;37.654;2023-05-11T03:39:34;100197.09;;;10.46;51.16
50672;BME280;46021;55.882;37.654;2023-05-11T03:42:03;100211.63;;;10.57;50.96
50672;BME280;46021;55.882;37.654;2023-05-11T03:44:35;100195.78;;;10.66;51.12
50672;BME280;46021;55.882;37.654;2023-05-11T03:47:03;100204.25;;;10.76;50.72
50672;BME280;46021;55.882;37.654;2023-05-11T03:49:32;100202.28;;;10.85;50.39
50672;BME280;46021;55.882;37.654;2023-05-11T03:51:59;100203.81;;;10.92;50.12
50672;BME280;46021;55.882;37.654;2023-05-11T03:54:27;100210.63;;;10.98;49.98
50672;BME280;46021;55.882;37.654;2023-05-11T03:56:58;100202.75;;;11.01;49.86
50672;BME280;46021;55.882;37.654;2023-05-11T03:59:25;100209.50;;;11.10;49.84
50672;BME280;46021;55.882;37.654;2023-05-11T04:01:57;100213.72;;;11.14;49.77
50672;BME280;46021;55.882;37.654;2023-05-11T04:04:29;100210.94;;;11.20;49.32
50672;BME280;46021;55.882;37.654;2023-05-11T04:06:58;100212.47;;;11.29;49.10
50672;BME280;46021;55.882;37.654;2023-05-11T04:09:25;100205.50;;;11.29;49.52
50672;BME280;46021;55.882;37.654;2023-05-11T04:11:53;100215.63;;;11.42;49.41
50672;BME280;46021;55.882;37.654;2023-05-11T04:14:20;100208.59;;;11.44;49.65
50672;BME280;46021;55.882;37.654;2023-05-11T04:16:47;100208.50;;;11.47;49.21
50672;BME280;46021;55.882;37.654;2023-05-11T04:19:16;100210.97;;;11.53;48.45
50672;BME280;46021;55.882;37.654;2023-05-11T04:21:46;100214.28;;;11.58;48.16
50672;BME280;46021;55.882;37.654;2023-05-11T04:24:18;100198.72;;;11.55;47.84
50672;BME280;46021;55.882;37.654;2023-05-11T04:26:45;100214.78;;;11.73;47.93
50672;BME280;46021;55.882;37.654;2023-05-11T04:29:12;100217.13;;;11.82;47.62
50672;BME280;46021;55.882;37.654;2023-05-11T04:31:39;100218.59;;;11.92;47.43
50672;BME280;46021;55.882;37.654;2023-05-11T04:34:06;100215.56;;;12.06;47.65
50672;BME280;46021;55.882;37.654;2023-05-11T04:36:37;100222.09;;;12.21;47.60
50672;BME280;46021;55.882;37.654;2023-05-11T04:39:04;100218.94;;;12.39;47.32
50672;BME280;46021;55.882;37.654;2023-05-11T04:41:32;100213.16;;;12.58;46.93
50672;BME280;46021;55.882;37.654;2023-05-11T04:44:00;100215.97;;;12.78;46.74
50672;BME280;46021;55.882;37.654;2023-05-11T04:46:27;100211.63;;;13.04;47.03
50672;BME280;46021;55.882;37.654;2023-05-11T04:48:54;100219.41;;;13.34;46.36
50672;BME280;46021;55.882;37.654;2023-05-11T04:51:22;100209.66;;;13.62;45.56
50672;BME280;46021;55.882;37.654;2023-05-11T04:53:50;100210.34;;;13.91;45.46
50672;BME280;46021;55.882;37.654;2023-05-11T04:56:18;100213.06;;;14.12;44.00
50672;BME280;46021;55.882;37.654;2023-05-11T04:58:47;100215.78;;;14.32;43.36
50672;BME280;46021;55.882;37.654;2023-05-11T05:01:14;100213.34;;;14.28;42.51
50672;BME280;46021;55.882;37.654;2023-05-11T05:03:41;100216.22;;;14.43;42.88
50672;BME280;46021;55.882;37.654;2023-05-11T05:06:08;100214.69;;;14.61;42.13
50672;BME280;46021;55.882;37.654;2023-05-11T05:08:37;100220.94;;;14.79;41.84
50672;BME280;46021;55.882;37.654;2023-05-11T05:11:06;100215.31;;;14.89;41.45
50672;BME280;46021;55.882;37.654;2023-05-11T05:13:35;100207.81;;;15.01;41.35
50672;BME280;46021;55.882;37.654;2023-05-11T05:16:03;100210.97;;;15.30;41.46
50672;BME280;46021;55.882;37.654;2023-05-11T05:18:30;100213.19;;;15.60;41.30
50672;BME280;46021;55.882;37.654;2023-05-11T05:20:58;100202.44;;;15.85;40.75
50672;BME280;46021;55.882;37.654;2023-05-11T05:23:25;100210.94;;;16.11;40.58
50672;BME280;46021;55.882;37.654;2023-05-11T05:25:53;100208.84;;;16.17;39.36
50672;BME280;46021;55.882;37.654;2023-05-11T05:28:25;100201.31;;;15.91;39.03
50672;BME280;46021;55.882;37.654;2023-05-11T05:30:53;100210.34;;;15.85;39.14
50672;BME280;46021;55.882;37.654;2023-05-11T05:33:20;100204.44;;;16.18;39.62
50672;BME280;46021;55.882;37.654;2023-05-11T05:35:48;100214.69;;;16.43;39.02
50672;BME280;46021;55.882;37.654;2023-05-11T05:38:15;100207.53;;;16.64;38.49
50672;BME280;46021;55.882;37.654;2023-05-11T05:40:42;100206.13;;;16.93;38.48
50672;BME280;46021;55.882;37.654;2023-05-11T05:43:09;100200.16;;;17.25;38.49
50672;BME280;46021;55.882;37.654;2023-05-11T05:45:38;100199.28;;;17.42;36.52
50672;BME280;46021;55.882;37.654;2023-05-11T05:48:05;100205.16;;;17.80;37.62
50672;BME280;46021;55.882;37.654;2023-05-11T05:50:34;100196.06;;;18.19;36.63
50672;BME280;46021;55.882;37.654;2023-05-11T05:53:01;100200.31;;;18.06;35.22
50672;BME280;46021;55.882;37.654;2023-05-11T05:55:29;100198.44;;;18.08;35.38
50672;BME280;46021;55.882;37.654;2023-05-11T05:57:59;100196.88;;;17.88;35.75
50672;BME280;46021;55.882;37.654;2023-05-11T06:00:26;100193.91;;;17.61;35.49
50672;BME280;46021;55.882;37.654;2023-05-11T06:03:02;100192.19;;;17.60;35.64
50672;BME280;46021;55.882;37.654;2023-05-11T06:05:30;100192.66;;;17.68;36.35
50672;BME280;46021;55.882;37.654;2023-05-11T06:07:57;100194.03;;;17.75;35.39
50672;BME280;46021;55.882;37.654;2023-05-11T06:10:25;100198.41;;;17.59;35.43
50672;BME280;46021;55.882;37.654;2023-05-11T06:12:53;100196.25;;;17.49;35.63
50672;BME280;46021;55.882;37.654;2023-05-11T06:15:20;100195.88;;;17.40;36.38
50672;BME280;46021;55.882;37.654;2023-05-11T06:17:54;100210.22;;;17.67;36.50
50672;BME280;46021;55.882;37.654;2023-05-11T06:20:23;100214.03;;;17.79;36.12
50672;BME280;46021;55.882;37.654;2023-05-11T06:22:50;100204.56;;;17.92;35.66
50672;BME280;46021;55.882;37.654;2023-05-11T06:25:18;100216.50;;;18.16;35.42
50672;BME280;46021;55.882;37.654;2023-05-11T06:27:47;100218.34;;;18.29;35.17
50672;BME280;46021;55.882;37.654;2023-05-11T06:30:14;100224.50;;;18.46;34.54
50672;BME280;46021;55.882;37.654;2023-05-11T06:32:42;100206.78;;;18.48;34.03
50672;BME280;46021;55.882;37.654;2023-05-11T06:35:11;100204.91;;;18.50;34.11
50672;BME280;46021;55.882;37.654;2023-05-11T06:37:40;100209.66;;;18.59;34.30
50672;BME280;46021;55.882;37.654;2023-05-11T06:40:08;100217.06;;;18.68;34.19
50672;BME280;46021;55.882;37.654;2023-05-11T06:42:35;100217.41;;;18.46;33.27
50672;BME280;46021;55.882;37.654;2023-05-11T06:45:07;100213.84;;;18.00;32.79
50672;BME280;46021;55.882;37.654;2023-05-11T06:47:35;100208.56;;;18.00;33.54
50672;BME280;46021;55.882;37.654;2023-05-11T06:50:02;100210.44;;;17.80;33.35
50672;BME280;46021;55.882;37.654;2023-05-11T06:52:32;100210.06;;;17.54;34.16
50672;BME280;46021;55.882;37.654;2023-05-11T06:55:02;100211.25;;;17.65;34.22
50672;BME280;46021;55.882;37.654;2023-05-11T06:57:33;100214.66;;;17.84;34.29
50672;BME280;46021;55.882;37.654;2023-05-11T07:00:00;100191.03;;;17.99;34.49
50672;BME280;46021;55.882;37.654;2023-05-11T07:02:34;100211.41;;;18.28;33.79
50672;BME280;46021;55.882;37.654;2023-05-11T07:05:02;100209.69;;;18.43;33.62
50672;BME280;46021;55.882;37.654;2023-05-11T07:07:31;100200.06;;;18.58;33.86
50672;BME280;46021;55.882;37.654;2023-05-11T07:09:58;100211.00;;;18.82;33.63
50672;BME280;46021;55.882;37.654;2023-05-11T07:12:27;100206.03;;;18.92;33.24
50672;BME280;46021;55.882;37.654;2023-05-11T07:14:54;100194.94;;;19.01;32.68
50672;BME280;46021;55.882;37.654;2023-05-11T07:17:21;100182.84;;;18.97;32.14
50672;BME280;46021;55.882;37.654;2023-05-11T07:19:48;100194.94;;;19.01;32.38
50672;BME280;46021;55.882;37.654;2023-05-11T07:22:17;100208.44;;;18.97;32.41
50672;BME280;46021;55.882;37.654;2023-05-11T07:24:44;100190.03;;;18.95;33.15
50672;BME280;46021;55.882;37.654;2023-05-11T07:27:11;100180.94;;;18.85;31.88
50672;BME280;46021;55.882;37.654;2023-05-11T07:29:41;100194.94;;;19.01;31.92
50672;BME280;46021;55.882;37.654;2023-05-11T07:32:08;100197.78;;;18.98;32.36
50672;BME280;46021;55.882;37.654;2023-05-11T07:34:35;100187.78;;;19.03;32.23
50672;BME280;46021;55.882;37.654;2023-05-11T07:37:02;100183.13;;;19.23;32.53
50672;BME280;46021;55.882;37.654;2023-05-11T07:39:29;100181.06;;;19.42;31.90
50672;BME280;46021;55.882;37.654;2023-05-11T07:41:56;100184.09;;;19.65;31.48
50672;BME280;46021;55.882;37.654;2023-05-11T07:44:24;100178.03;;;19.48;30.84
50672;BME280;46021;55.882;37.654;2023-05-11T07:46:52;100186.53;;;19.54;30.59
50672;BME280;46021;55.882;37.654;2023-05-11T07:49:19;100180.31;;;19.69;30.99
50672;BME280;46021;55.882;37.654;2023-05-11T07:51:46;100176.56;;;19.88;30.81
50672;BME280;46021;55.882;37.654;2023-05-11T07:54:13;100174.75;;;19.88;30.61
50672;BME280;46021;55.882;37.654;2023-05-11T07:56:41;100172.16;;;19.29;30.25
50672;BME280;46021;55.882;37.654;2023-05-11T07:59:08;100175.97;;;19.54;30.18
50672;BME280;46021;55.882;37.654;2023-05-11T08:01:35;100172.53;;;19.23;30.35
50672;BME280;46021;55.882;37.654;2023-05-11T08:04:04;100177.16;;;19.19;30.24
50672;BME280;46021;55.882;37.654;2023-05-11T08:06:31;100175.84;;;19.41;30.66
50672;BME280;46021;55.882;37.654;2023-05-11T08:08:58;100174.72;;;19.59;29.84
50672;BME280;46021;55.882;37.654;2023-05-11T08:11:25;100170.47;;;19.71;30.71
50672;BME280;46021;55.882;37.654;2023-05-11T08:13:53;100172.97;;;19.74;30.27
50672;BME280;46021;55.882;37.654;2023-05-11T08:16:20;100171.63;;;19.67;30.15
50672;BME280;46021;55.882;37.654;2023-05-11T08:18:47;100165.97;;;19.73;30.90
50672;BME280;46021;55.882;37.654;2023-05-11T08:21:15;100166.16;;;19.70;31.32
50672;BME280;46021;55.882;37.654;2023-05-11T08:23:43;100164.06;;;19.75;31.01
50672;BME280;46021;55.882;37.654;2023-05-11T08:26:10;100166.53;;;19.78;30.87
50672;BME280;46021;55.882;37.654;2023-05-11T08:28:37;100172.78;;;19.77;30.91
50672;BME280;46021;55.882;37.654;2023-05-11T08:31:04;100174.34;;;19.37;30.46
50672;BME280;46021;55.882;37.654;2023-05-11T08:33:32;100165.38;;;19.25;30.82
50672;BME280;46021;55.882;37.654;2023-05-11T08:35:59;100168.94;;;19.09;30.31
50672;BME280;46021;55.882;37.654;2023-05-11T08:38:27;100167.19;;;18.78;30.03
50672;BME280;46021;55.882;37.654;2023-05-11T08:40:54;100167.69;;;18.55;30.08
50672;BME280;46021;55.882;37.654;2023-05-11T08:43:23;100167.09;;;18.49;30.52
50672;BME280;46021;55.882;37.654;2023-05-11T08:45:56;100157.09;;;18.24;30.63
50672;BME280;46021;55.882;37.654;2023-05-11T08:48:26;100166.78;;;18.08;30.91
50672;BME280;46021;55.882;37.654;2023-05-11T08:50:54;100167.13;;;18.02;30.68
50672;BME280;46021;55.882;37.654;2023-05-11T08:53:22;100164.38;;;17.87;31.05
50672;BME280;46021;55.882;37.654;2023-05-11T08:55:51;100150.19;;;17.57;31.48
50672;BME280;46021;55.882;37.654;2023-05-11T08:58:28;100157.56;;;17.17;32.05
50672;BME280;46021;55.882;37.654;2023-05-11T09:00:56;100160.19;;;16.99;32.26
50672;BME280;46021;55.882;37.654;2023-05-11T09:03:27;100167.47;;;16.94;32.01
50672;BME280;46021;55.882;37.654;2023-05-11T09:05:56;100164.13;;;16.54;33.15
50672;BME280;46021;55.882;37.654;2023-05-11T09:08:24;100159.88;;;16.15;33.97
50672;BME280;46021;55.882;37.654;2023-05-11T09:10:55;100161.38;;;16.21;34.33
50672;BME280;46021;55.882;37.654;2023-05-11T09:13:22;100160.38;;;15.85;35.28
50672;BME280;46021;55.882;37.654;2023-05-11T09:15:50;100153.16;;;15.90;35.36
50672;BME280;46021;55.882;37.654;2023-05-11T09:18:18;100150.16;;;15.98;35.92
50672;BME280;46021;55.882;37.654;2023-05-11T09:20:46;100161.03;;;16.09;36.12
50672;BME280;46021;55.882;37.654;2023-05-11T09:23:15;100144.19;;;16.13;36.66
50672;BME280;46021;55.882;37.654;2023-05-11T09:25:43;100156.09;;;16.40;37.91
50672;BME280;46021;55.882;37.654;2023-05-11T09:28:12;100150.25;;;16.69;38.48
50672;BME280;46021;55.882;37.654;2023-05-11T09:33:09;100139.63;;;18.06;38.54
50672;BME280;46021;55.882;37.654;2023-05-11T09:35:36;100136.22;;;19.26;38.40
50672;BME280;46021;55.882;37.654;2023-05-11T09:38:06;100136.31;;;20.51;35.36
50672;BME280;46021;55.882;37.654;2023-05-11T09:40:35;100131.13;;;21.41;34.31
50672;BME280;46021;55.882;37.654;2023-05-11T09:43:03;100120.41;;;21.68;32.49
50672;BME280;46021;55.882;37.654;2023-05-11T09:45:43;100114.81;;;21.47;30.86
50672;BME280;46021;55.882;37.654;2023-05-11T09:48:23;100107.16;;;21.30;30.95
50672;BME280;46021;55.882;37.654;2023-05-11T09:50:51;100099.13;;;21.57;31.79
50672;BME280;46021;55.882;37.654;2023-05-11T09:53:33;100097.00;;;22.58;30.75
50672;BME280;46021;55.882;37.654;2023-05-11T09:56:00;100081.81;;;23.52;27.35
50672;BME280;46021;55.882;37.654;2023-05-11T09:58:44;100089.50;;;24.44;26.52
50672;BME280;46021;55.882;37.654;2023-05-11T10:01:13;100083.59;;;25.65;25.93
50672;BME280;46021;55.882;37.654;2023-05-11T10:03:49;100084.91;;;25.91;23.42
50672;BME280;46021;55.882;37.654;2023-05-11T10:06:16;100081.88;;;26.34;24.12
50672;BME280;46021;55.882;37.654;2023-05-11T10:08:44;100080.66;;;27.15;23.76
50672;BME280;46021;55.882;37.654;2023-05-11T10:11:11;100070.47;;;27.56;23.31
50672;BME280;46021;55.882;37.654;2023-05-11T10:13:38;100071.97;;;28.14;23.00
50672;BME280;46021;55.882;37.654;2023-05-11T10:16:07;100064.53;;;28.88;22.08
50672;BME280;46021;55.882;37.654;2023-05-11T10:18:37;100060.25;;;28.51;21.05
50672;BME280;46021;55.882;37.654;2023-05-11T10:21:06;100062.66;;;27.07;20.77
50672;BME280;46021;55.882;37.654;2023-05-11T10:23:34;100077.28;;;24.63;22.36
50672;BME280;46021;55.882;37.654;2023-05-11T10:26:03;100065.75;;;23.20;23.79
50672;BME280;46021;55.882;37.654;2023-05-11T10:28:31;100072.63;;;22.53;24.58
50672;BME280;46021;55.882;37.654;2023-05-11T10:30:58;100065.53;;;22.65;25.21
50672;BME280;46021;55.882;37.654;2023-05-11T10:33:26;100064.00;;;23.87;25.47
50672;BME280;46021;55.882;37.654;2023-05-11T10:35:55;100069.34;;;25.55;24.33
50672;BME280;46021;55.882;37.654;2023-05-11T10:38:23;100067.09;;;27.16;22.84
50672;BME280;46021;55.882;37.654;2023-05-11T10:40:51;100046.69;;;28.34;22.28
50672;BME280;46021;55.882;37.654;2023-05-11T10:43:40;100050.97;;;29.15;20.64
50672;BME280;46021;55.882;37.654;2023-05-11T10:46:22;100043.31;;;29.29;20.07
50672;BME280;46021;55.882;37.654;2023-05-11T10:49:09;100032.31;;;26.79;19.53
50672;BME280;46021;55.882;37.654;2023-05-11T10:52:00;100064.31;;;25.52;20.87
50672;BME280;46021;55.882;37.654;2023-05-11T10:54:43;100058.38;;;23.24;22.53
50672;BME280;46021;55.882;37.654;2023-05-11T10:57:26;100071.13;;;21.27;25.03
50672;BME280;46021;55.882;37.654;2023-05-11T11:00:16;100060.44;;;19.54;27.23
50672;BME280;46021;55.882;37.654;2023-05-11T11:02:56;100093.13;;;18.65;27.97
50672;BME280;46021;55.882;37.654;2023-05-11T11:05:33;100097.56;;;18.35;28.64
50672;BME280;46021;55.882;37.654;2023-05-11T11:08:02;100104.31;;;18.08;28.62
50672;BME280;46021;55.882;37.654;2023-05-11T11:10:33;100097.53;;;17.88;29.45
50672;BME280;46021;55.882;37.654;2023-05-11T11:13:04;100102.94;;;17.69;29.61
50672;BME280;46021;55.882;37.654;2023-05-11T11:16:07;100114.97;;;17.42;31.19
50672;BME280;46021;55.882;37.654;2023-05-11T11:18:35;100130.75;;;17.26;30.83
50672;BME280;46021;55.882;37.654;2023-05-11T11:21:02;100157.09;;;16.91;33.27
50672;BME280;46021;55.882;37.654;2023-05-11T11:23:49;100169.00;;;16.44;37.62
50672;BME280;46021;55.882;37.654;2023-05-11T11:26:46;100158.34;;;16.11;38.26
50672;BME280;46021;55.882;37.654;2023-05-11T11:29:14;100170.34;;;15.78;38.74
50672;BME280;46021;55.882;37.654;2023-05-11T11:31:41;100165.03;;;15.20;40.61
50672;BME280;46021;55.882;37.654;2023-05-11T11:34:31;100177.28;;;14.78;44.89
50672;BME280;46021;55.882;37.654;2023-05-11T11:37:02;100180.66;;;14.36;45.04
50672;BME280;46021;55.882;37.654;2023-05-11T11:42:36;100176.09;;;13.49;49.32
50672;BME280;46021;55.882;37.654;2023-05-11T11:45:27;100180.69;;;13.42;50.57
50672;BME280;46021;55.882;37.654;2023-05-11T11:48:05;100173.91;;;13.61;51.80
50672;BME280;46021;55.882;37.654;2023-05-11T11:50:33;100182.84;;;14.25;53.43
50672;BME280;46021;55.882;37.654;2023-05-11T11:53:00;100173.63;;;15.24;54.27
50672;BME280;46021;55.882;37.654;2023-05-11T11:55:45;100166.78;;;16.54;53.19
50672;BME280;46021;55.882;37.654;2023-05-11T11:58:56;100161.91;;;17.84;50.70
50672;BME280;46021;55.882;37.654;2023-05-11T12:01:25;100158.69;;;18.89;49.63
50672;BME280;46021;55.882;37.654;2023-05-11T12:04:11;100150.63;;;19.64;44.94
50672;BME280;46021;55.882;37.654;2023-05-11T12:06:41;100163.69;;;19.96;44.26
50672;BME280;46021;55.882;37.654;2023-05-11T12:09:09;100149.41;;;20.40;42.49
50672;BME280;46021;55.882;37.654;2023-05-11T12:11:37;100151.50;;;20.62;41.65
50672;BME280;46021;55.882;37.654;2023-05-11T12:14:08;100142.03;;;20.58;39.89
50672;BME280;46021;55.882;37.654;2023-05-11T12:16:35;100143.25;;;19.98;39.17
50672;BME280;46021;55.882;37.654;2023-05-11T12:19:02;100142.72;;;19.21;38.41
50672;BME280;46021;55.882;37.654;2023-05-11T12:21:31;100141.06;;;18.74;38.84
50672;BME280;46021;55.882;37.654;2023-05-11T12:24:00;100124.81;;;18.65;39.48
50672;BME280;46021;55.882;37.654;2023-05-11T12:26:28;100130.22;;;18.94;38.97
50672;BME280;46021;55.882;37.654;2023-05-11T12:29:07;100132.16;;;19.21;38.70
50672;BME280;46021;55.882;37.654;2023-05-11T12:31:35;100114.75;;;19.31;39.05
50672;BME280;46021;55.882;37.654;2023-05-11T12:34:02;100119.94;;;19.18;37.70
50672;BME280;46021;55.882;37.654;2023-05-11T12:36:29;100121.19;;;19.27;37.54
50672;BME280;46021;55.882;37.654;2023-05-11T12:39:01;100112.22;;;19.29;37.75
50672;BME280;46021;55.882;37.654;2023-05-11T12:41:29;100106.06;;;19.15;37.48
50672;BME280;46021;55.882;37.654;2023-05-11T12:43:56;100101.59;;;18.86;37.54
50672;BME280;46021;55.882;37.654;2023-05-11T12:46:25;100108.19;;;18.63;37.64
50672;BME280;46021;55.882;37.654;2023-05-11T12:48:52;100110.91;;;18.47;38.96
50672;BME280;46021;55.882;37.654;2023-05-11T12:51:45;100108.63;;;18.25;39.07
50672;BME280;46021;55.882;37.654;2023-05-11T12:54:29;100118.13;;;17.98;38.41
50672;BME280;46021;55.882;37.654;2023-05-11T12:56:57;100098.84;;;17.64;38.83
50672;BME280;46021;55.882;37.654;2023-05-11T12:59:33;100102.88;;;17.38;39.43
50672;BME280;46021;55.882;37.654;2023-05-11T13:04:31;100093.75;;;16.94;39.35
50672;BME280;46021;55.882;37.654;2023-05-11T13:07:00;100099.31;;;16.88;39.19
50672;BME280;46021;55.882;37.654;2023-05-11T13:09:28;100092.66;;;16.81;39.94